sensor_id;sensor_type;location;lat;lon;timestamp;temperature;humidity
18406;DHT22;9329;48.720;9.588;2022-10-16T00:01:12;17.10;99.90
18406;DHT22;9329;48.720;9.588;2022-10-16T00:03:40;17.10;99.90
18406;DHT22;9329;48.720;9.588;2022-10-16T00:06:07;17.10;99.90
18406;DHT22;9329;48.720;9.588;2022-10-16T00:08:34;17.20;99.90
18406;DHT22;9329;48.720;9.588;2022-10-16T00:11:03;17.30;99.90
18406;DHT22;9329;48.720;9.588;2022-10-16T00:13:30;17.10;99.90
18406;DHT22;9329;48.720;9.588;2022-10-16T00:15:57;16.90;99.90
18406;DHT22;9329;48.720;9.588;2022-10-16T00:18:25;16.90;99.90
18406;DHT22;9329;48.720;9.588;2022-10-16T00:20:51;17.10;99.90
18406;DHT22;9329;48.720;9.588;2022-10-16T00:23:18;17.00;99.90
18406;DHT22;9329;48.720;9.588;2022-10-16T00:25:53;17.10;99.90
18406;DHT22;9329;48.720;9.588;2022-10-16T00:28:21;17.30;99.90
18406;DHT22;9329;48.720;9.588;2022-10-16T00:30:48;17.30;99.90
18406;DHT22;9329;48.720;9.588;2022-10-16T00:33:15;17.20;99.90
18406;DHT22;9329;48.720;9.588;2022-10-16T00:35:42;17.10;99.90
18406;DHT22;9329;48.720;9.588;2022-10-16T00:38:09;16.80;99.90
18406;DHT22;9329;48.720;9.588;2022-10-16T00:40:35;16.80;99.90
18406;DHT22;9329;48.720;9.588;2022-10-16T00:43:02;16.50;99.90
18406;DHT22;9329;48.720;9.588;2022-10-16T00:45:30;16.80;99.90
18406;DHT22;9329;48.720;9.588;2022-10-16T00:47:57;16.90;99.90
18406;DHT22;9329;48.720;9.588;2022-10-16T00:50:26;17.00;99.90
18406;DHT22;9329;48.720;9.588;2022-10-16T00:52:54;17.00;99.90
18406;DHT22;9329;48.720;9.588;2022-10-16T00:55:21;16.70;99.90
18406;DHT22;9329;48.720;9.588;2022-10-16T00:57:48;16.90;99.90
18406;DHT22;9329;48.720;9.588;2022-10-16T01:00:17;16.60;99.90
18406;DHT22;9329;48.720;9.588;2022-10-16T01:02:52;16.70;99.90
18406;DHT22;9329;48.720;9.588;2022-10-16T01:05:19;16.60;99.90
18406;DHT22;9329;48.720;9.588;2022-10-16T01:07:48;17.00;99.90
18406;DHT22;9329;48.720;9.588;2022-10-16T01:10:22;16.80;99.90
18406;DHT22;9329;48.720;9.588;2022-10-16T01:12:54;16.90;99.90
18406;DHT22;9329;48.720;9.588;2022-10-16T01:15:25;16.30;99.90
18406;DHT22;9329;48.720;9.588;2022-10-16T01:17:56;16.40;99.90
18406;DHT22;9329;48.720;9.588;2022-10-16T01:20:26;16.70;99.90
18406;DHT22;9329;48.720;9.588;2022-10-16T01:22:57;16.70;99.90
18406;DHT22;9329;48.720;9.588;2022-10-16T01:25:30;16.80;99.90
18406;DHT22;9329;48.720;9.588;2022-10-16T01:28:02;16.50;99.90
18406;DHT22;9329;48.720;9.588;2022-10-16T01:30:30;16.20;99.90
18406;DHT22;9329;48.720;9.588;2022-10-16T01:32:59;16.40;99.90
18406;DHT22;9329;48.720;9.588;2022-10-16T01:35:28;16.70;99.90
18406;DHT22;9329;48.720;9.588;2022-10-16T01:37:57;16.60;99.90
18406;DHT22;9329;48.720;9.588;2022-10-16T01:40:26;16.50;99.90
18406;DHT22;9329;48.720;9.588;2022-10-16T01:42:55;16.60;99.90
18406;DHT22;9329;48.720;9.588;2022-10-16T01:45:24;16.40;99.90
18406;DHT22;9329;48.720;9.588;2022-10-16T01:47:51;16.70;99.90
18406;DHT22;9329;48.720;9.588;2022-10-16T01:50:19;16.50;99.90
18406;DHT22;9329;48.720;9.588;2022-10-16T01:52:48;16.00;99.90
18406;DHT22;9329;48.720;9.588;2022-10-16T01:55:16;16.20;99.90
18406;DHT22;9329;48.720;9.588;2022-10-16T01:57:45;16.30;99.90
18406;DHT22;9329;48.720;9.588;2022-10-16T02:00:13;16.10;99.90
18406;DHT22;9329;48.720;9.588;2022-10-16T02:02:42;16.20;99.90
18406;DHT22;9329;48.720;9.588;2022-10-16T02:05:10;16.30;99.90
18406;DHT22;9329;48.720;9.588;2022-10-16T02:07:39;16.50;99.90
18406;DHT22;9329;48.720;9.588;2022-10-16T02:10:07;16.50;99.90
18406;DHT22;9329;48.720;9.588;2022-10-16T02:12:35;16.70;99.90
18406;DHT22;9329;48.720;9.588;2022-10-16T02:15:05;16.50;99.90
18406;DHT22;9329;48.720;9.588;2022-10-16T02:17:32;16.50;99.90
18406;DHT22;9329;48.720;9.588;2022-10-16T02:20:00;16.70;99.90
18406;DHT22;9329;48.720;9.588;2022-10-16T02:22:28;16.70;99.90
18406;DHT22;9329;48.720;9.588;2022-10-16T02:24:56;16.30;99.90
18406;DHT22;9329;48.720;9.588;2022-10-16T02:27:26;16.00;99.90
18406;DHT22;9329;48.720;9.588;2022-10-16T02:29:55;16.40;99.90
18406;DHT22;9329;48.720;9.588;2022-10-16T02:32:26;16.50;99.90
18406;DHT22;9329;48.720;9.588;2022-10-16T02:34:55;16.90;99.90
18406;DHT22;9329;48.720;9.588;2022-10-16T02:37:24;16.60;99.90
18406;DHT22;9329;48.720;9.588;2022-10-16T02:39:51;16.80;99.90
18406;DHT22;9329;48.720;9.588;2022-10-16T02:42:19;16.70;99.90
18406;DHT22;9329;48.720;9.588;2022-10-16T02:44:45;16.90;99.90
18406;DHT22;9329;48.720;9.588;2022-10-16T02:47:14;16.60;99.90
18406;DHT22;9329;48.720;9.588;2022-10-16T02:49:41;17.10;99.90
18406;DHT22;9329;48.720;9.588;2022-10-16T02:52:08;17.00;99.90
18406;DHT22;9329;48.720;9.588;2022-10-16T02:54:36;16.90;99.90
18406;DHT22;9329;48.720;9.588;2022-10-16T02:57:03;17.10;99.90
18406;DHT22;9329;48.720;9.588;2022-10-16T02:59:30;17.20;99.90
18406;DHT22;9329;48.720;9.588;2022-10-16T03:01:56;16.90;99.90
18406;DHT22;9329;48.720;9.588;2022-10-16T03:04:23;16.70;99.90
18406;DHT22;9329;48.720;9.588;2022-10-16T03:06:50;16.80;99.90
18406;DHT22;9329;48.720;9.588;2022-10-16T03:09:16;16.80;99.90
18406;DHT22;9329;48.720;9.588;2022-10-16T03:11:45;16.60;99.90
18406;DHT22;9329;48.720;9.588;2022-10-16T03:14:11;16.50;99.90
18406;DHT22;9329;48.720;9.588;2022-10-16T03:16:38;16.50;99.90
18406;DHT22;9329;48.720;9.588;2022-10-16T03:19:05;16.50;99.90
18406;DHT22;9329;48.720;9.588;2022-10-16T03:21:32;16.70;99.90
18406;DHT22;9329;48.720;9.588;2022-10-16T03:23:59;16.70;99.90
18406;DHT22;9329;48.720;9.588;2022-10-16T03:26:28;16.90;99.90
18406;DHT22;9329;48.720;9.588;2022-10-16T03:28:56;16.90;99.90
18406;DHT22;9329;48.720;9.588;2022-10-16T03:31:23;16.90;99.90
18406;DHT22;9329;48.720;9.588;2022-10-16T03:33:49;16.90;99.90
18406;DHT22;9329;48.720;9.588;2022-10-16T03:36:16;16.70;99.90
18406;DHT22;9329;48.720;9.588;2022-10-16T03:38:43;16.90;99.90
18406;DHT22;9329;48.720;9.588;2022-10-16T03:41:09;17.00;99.90
18406;DHT22;9329;48.720;9.588;2022-10-16T03:43:36;16.80;99.90
18406;DHT22;9329;48.720;9.588;2022-10-16T03:46:04;16.70;99.90
18406;DHT22;9329;48.720;9.588;2022-10-16T03:48:31;16.50;99.90
18406;DHT22;9329;48.720;9.588;2022-10-16T03:50:58;16.60;99.90
18406;DHT22;9329;48.720;9.588;2022-10-16T03:53:25;16.70;99.90
18406;DHT22;9329;48.720;9.588;2022-10-16T03:55:52;16.30;99.90
18406;DHT22;9329;48.720;9.588;2022-10-16T03:58:18;16.20;99.90
18406;DHT22;9329;48.720;9.588;2022-10-16T04:00:45;16.40;99.90
18406;DHT22;9329;48.720;9.588;2022-10-16T04:03:14;16.80;99.90
18406;DHT22;9329;48.720;9.588;2022-10-16T04:05:41;16.30;99.90
18406;DHT22;9329;48.720;9.588;2022-10-16T04:08:07;16.40;99.90
18406;DHT22;9329;48.720;9.588;2022-10-16T04:10:34;16.20;99.90
18406;DHT22;9329;48.720;9.588;2022-10-16T04:13:01;16.30;99.90
18406;DHT22;9329;48.720;9.588;2022-10-16T04:15:28;16.30;99.90
18406;DHT22;9329;48.720;9.588;2022-10-16T04:17:55;16.40;99.90
18406;DHT22;9329;48.720;9.588;2022-10-16T04:20:23;16.50;99.90
18406;DHT22;9329;48.720;9.588;2022-10-16T04:22:50;16.50;99.90
18406;DHT22;9329;48.720;9.588;2022-10-16T04:25:16;16.60;99.90
18406;DHT22;9329;48.720;9.588;2022-10-16T04:27:43;16.70;99.90
18406;DHT22;9329;48.720;9.588;2022-10-16T04:30:10;16.70;99.90
18406;DHT22;9329;48.720;9.588;2022-10-16T04:32:37;16.70;99.90
18406;DHT22;9329;48.720;9.588;2022-10-16T04:35:04;16.30;99.90
18406;DHT22;9329;48.720;9.588;2022-10-16T04:37:32;16.10;99.90
18406;DHT22;9329;48.720;9.588;2022-10-16T04:39:59;16.10;99.90
18406;DHT22;9329;48.720;9.588;2022-10-16T04:42:26;16.20;99.90
18406;DHT22;9329;48.720;9.588;2022-10-16T04:44:52;16.30;99.90
18406;DHT22;9329;48.720;9.588;2022-10-16T04:47:19;16.00;99.90
18406;DHT22;9329;48.720;9.588;2022-10-16T04:49:46;16.10;99.90
18406;DHT22;9329;48.720;9.588;2022-10-16T04:52:13;15.80;99.90
18406;DHT22;9329;48.720;9.588;2022-10-16T04:54:41;16.00;99.90
18406;DHT22;9329;48.720;9.588;2022-10-16T04:57:10;15.90;99.90
18406;DHT22;9329;48.720;9.588;2022-10-16T04:59:37;16.20;99.90
18406;DHT22;9329;48.720;9.588;2022-10-16T05:02:04;16.20;99.90
18406;DHT22;9329;48.720;9.588;2022-10-16T05:04:31;16.10;99.90
18406;DHT22;9329;48.720;9.588;2022-10-16T05:06:58;16.20;99.90
18406;DHT22;9329;48.720;9.588;2022-10-16T05:09:25;16.30;99.90
18406;DHT22;9329;48.720;9.588;2022-10-16T05:11:53;16.50;99.90
18406;DHT22;9329;48.720;9.588;2022-10-16T05:14:20;16.40;99.90
18406;DHT22;9329;48.720;9.588;2022-10-16T05:16:46;16.60;99.90
18406;DHT22;9329;48.720;9.588;2022-10-16T05:19:13;16.60;99.90
18406;DHT22;9329;48.720;9.588;2022-10-16T05:21:40;16.50;99.90
18406;DHT22;9329;48.720;9.588;2022-10-16T05:24:07;16.60;99.90
18406;DHT22;9329;48.720;9.588;2022-10-16T05:26:34;16.50;99.90
18406;DHT22;9329;48.720;9.588;2022-10-16T05:29:02;16.70;99.90
18406;DHT22;9329;48.720;9.588;2022-10-16T05:31:29;16.60;99.90
18406;DHT22;9329;48.720;9.588;2022-10-16T05:33:57;17.00;99.90
18406;DHT22;9329;48.720;9.588;2022-10-16T05:36:24;16.90;99.90
18406;DHT22;9329;48.720;9.588;2022-10-16T05:38:51;16.80;99.90
18406;DHT22;9329;48.720;9.588;2022-10-16T05:41:18;16.80;99.90
18406;DHT22;9329;48.720;9.588;2022-10-16T05:43:47;16.80;99.90
18406;DHT22;9329;48.720;9.588;2022-10-16T05:46:15;16.80;99.90
18406;DHT22;9329;48.720;9.588;2022-10-16T05:48:42;17.00;99.90
18406;DHT22;9329;48.720;9.588;2022-10-16T05:51:09;16.80;99.90
18406;DHT22;9329;48.720;9.588;2022-10-16T05:53:37;16.70;99.90
18406;DHT22;9329;48.720;9.588;2022-10-16T05:56:05;16.50;99.90
18406;DHT22;9329;48.720;9.588;2022-10-16T05:58:33;16.80;99.90
18406;DHT22;9329;48.720;9.588;2022-10-16T06:01:03;16.50;99.90
18406;DHT22;9329;48.720;9.588;2022-10-16T06:03:31;16.40;99.90
18406;DHT22;9329;48.720;9.588;2022-10-16T06:05:58;16.50;99.90
18406;DHT22;9329;48.720;9.588;2022-10-16T06:08:25;16.40;99.90
18406;DHT22;9329;48.720;9.588;2022-10-16T06:11:00;16.60;99.90
18406;DHT22;9329;48.720;9.588;2022-10-16T06:13:27;16.30;99.90
18406;DHT22;9329;48.720;9.588;2022-10-16T06:15:56;16.20;99.90
18406;DHT22;9329;48.720;9.588;2022-10-16T06:18:23;16.50;99.90
18406;DHT22;9329;48.720;9.588;2022-10-16T06:20:51;16.60;99.90
18406;DHT22;9329;48.720;9.588;2022-10-16T06:23:18;16.70;99.90
18406;DHT22;9329;48.720;9.588;2022-10-16T06:25:45;16.70;99.90
18406;DHT22;9329;48.720;9.588;2022-10-16T06:28:13;16.80;99.90
18406;DHT22;9329;48.720;9.588;2022-10-16T06:30:39;16.50;99.90
18406;DHT22;9329;48.720;9.588;2022-10-16T06:33:06;16.80;99.90
18406;DHT22;9329;48.720;9.588;2022-10-16T06:35:36;16.80;99.90
18406;DHT22;9329;48.720;9.588;2022-10-16T06:38:04;17.00;99.90
18406;DHT22;9329;48.720;9.588;2022-10-16T06:40:31;17.00;99.90
18406;DHT22;9329;48.720;9.588;2022-10-16T06:42:58;17.30;99.90
18406;DHT22;9329;48.720;9.588;2022-10-16T06:45:25;17.20;99.90
18406;DHT22;9329;48.720;9.588;2022-10-16T06:47:52;17.10;99.90
18406;DHT22;9329;48.720;9.588;2022-10-16T06:50:19;17.40;99.90
18406;DHT22;9329;48.720;9.588;2022-10-16T06:52:45;17.30;99.90
18406;DHT22;9329;48.720;9.588;2022-10-16T06:55:14;17.30;99.90
18406;DHT22;9329;48.720;9.588;2022-10-16T06:57:42;17.60;99.90
18406;DHT22;9329;48.720;9.588;2022-10-16T07:00:09;17.40;99.90
18406;DHT22;9329;48.720;9.588;2022-10-16T07:02:36;17.60;99.90
18406;DHT22;9329;48.720;9.588;2022-10-16T07:05:03;18.00;99.90
18406;DHT22;9329;48.720;9.588;2022-10-16T07:07:30;18.00;99.90
18406;DHT22;9329;48.720;9.588;2022-10-16T07:09:57;18.20;99.90
18406;DHT22;9329;48.720;9.588;2022-10-16T07:12:25;18.40;99.90
18406;DHT22;9329;48.720;9.588;2022-10-16T07:14:52;18.10;99.90
18406;DHT22;9329;48.720;9.588;2022-10-16T07:17:20;18.30;99.90
18406;DHT22;9329;48.720;9.588;2022-10-16T07:19:47;18.30;99.90
18406;DHT22;9329;48.720;9.588;2022-10-16T07:22:13;18.70;99.90
18406;DHT22;9329;48.720;9.588;2022-10-16T07:24:40;19.20;99.90
18406;DHT22;9329;48.720;9.588;2022-10-16T07:27:08;19.20;99.90
18406;DHT22;9329;48.720;9.588;2022-10-16T07:29:37;19.20;99.90
18406;DHT22;9329;48.720;9.588;2022-10-16T07:32:04;19.30;99.90
18406;DHT22;9329;48.720;9.588;2022-10-16T07:34:30;19.10;99.90
18406;DHT22;9329;48.720;9.588;2022-10-16T07:36:57;19.40;99.90
18406;DHT22;9329;48.720;9.588;2022-10-16T07:39:24;19.10;99.90
18406;DHT22;9329;48.720;9.588;2022-10-16T07:41:51;19.10;99.90
18406;DHT22;9329;48.720;9.588;2022-10-16T07:44:18;19.10;99.90
18406;DHT22;9329;48.720;9.588;2022-10-16T07:46:46;19.20;99.90
18406;DHT22;9329;48.720;9.588;2022-10-16T07:49:13;19.80;99.90
18406;DHT22;9329;48.720;9.588;2022-10-16T07:51:40;19.50;99.90
18406;DHT22;9329;48.720;9.588;2022-10-16T07:54:07;19.60;99.90
18406;DHT22;9329;48.720;9.588;2022-10-16T07:56:36;19.60;99.90
18406;DHT22;9329;48.720;9.588;2022-10-16T07:59:03;19.50;99.90
18406;DHT22;9329;48.720;9.588;2022-10-16T08:01:30;19.60;99.90
18406;DHT22;9329;48.720;9.588;2022-10-16T08:03:58;19.80;99.90
18406;DHT22;9329;48.720;9.588;2022-10-16T08:06:25;19.60;99.90
18406;DHT22;9329;48.720;9.588;2022-10-16T08:08:52;19.60;99.90
18406;DHT22;9329;48.720;9.588;2022-10-16T08:11:19;19.50;99.90
18406;DHT22;9329;48.720;9.588;2022-10-16T08:13:45;19.50;99.90
18406;DHT22;9329;48.720;9.588;2022-10-16T08:16:12;19.80;99.90
18406;DHT22;9329;48.720;9.588;2022-10-16T08:18:39;20.10;99.90
18406;DHT22;9329;48.720;9.588;2022-10-16T08:21:10;20.10;99.90
18406;DHT22;9329;48.720;9.588;2022-10-16T08:23:41;20.10;99.90
18406;DHT22;9329;48.720;9.588;2022-10-16T08:26:09;20.30;99.90
18406;DHT22;9329;48.720;9.588;2022-10-16T08:28:36;20.40;99.90
18406;DHT22;9329;48.720;9.588;2022-10-16T08:31:07;20.30;99.90
18406;DHT22;9329;48.720;9.588;2022-10-16T08:33:34;20.40;99.90
18406;DHT22;9329;48.720;9.588;2022-10-16T08:36:02;20.40;99.90
18406;DHT22;9329;48.720;9.588;2022-10-16T08:38:30;20.60;99.90
18406;DHT22;9329;48.720;9.588;2022-10-16T08:41:00;20.30;99.90
18406;DHT22;9329;48.720;9.588;2022-10-16T08:46:15;20.60;99.90
18406;DHT22;9329;48.720;9.588;2022-10-16T08:48:47;20.70;99.90
18406;DHT22;9329;48.720;9.588;2022-10-16T08:51:18;21.10;99.90
18406;DHT22;9329;48.720;9.588;2022-10-16T08:53:49;20.90;99.90
18406;DHT22;9329;48.720;9.588;2022-10-16T08:56:17;20.80;99.90
18406;DHT22;9329;48.720;9.588;2022-10-16T08:58:44;20.90;99.90
18406;DHT22;9329;48.720;9.588;2022-10-16T09:01:11;21.30;99.90
18406;DHT22;9329;48.720;9.588;2022-10-16T09:03:42;21.60;99.90
18406;DHT22;9329;48.720;9.588;2022-10-16T09:06:21;21.70;99.90
18406;DHT22;9329;48.720;9.588;2022-10-16T09:08:59;21.90;99.90
18406;DHT22;9329;48.720;9.588;2022-10-16T09:11:32;21.30;99.90
18406;DHT22;9329;48.720;9.588;2022-10-16T09:14:03;22.00;99.90
18406;DHT22;9329;48.720;9.588;2022-10-16T09:16:32;22.20;99.90
18406;DHT22;9329;48.720;9.588;2022-10-16T09:19:01;22.20;99.90
18406;DHT22;9329;48.720;9.588;2022-10-16T09:21:30;22.00;99.90
18406;DHT22;9329;48.720;9.588;2022-10-16T09:23:59;22.00;99.90
18406;DHT22;9329;48.720;9.588;2022-10-16T09:26:27;22.50;99.90
18406;DHT22;9329;48.720;9.588;2022-10-16T09:28:53;22.30;99.90
18406;DHT22;9329;48.720;9.588;2022-10-16T09:31:21;22.60;99.90
18406;DHT22;9329;48.720;9.588;2022-10-16T09:33:50;22.30;99.90
18406;DHT22;9329;48.720;9.588;2022-10-16T09:46:06;23.00;99.90
18406;DHT22;9329;48.720;9.588;2022-10-16T09:48:36;23.00;99.90
18406;DHT22;9329;48.720;9.588;2022-10-16T09:51:04;22.80;99.90
18406;DHT22;9329;48.720;9.588;2022-10-16T09:53:38;22.80;99.90
18406;DHT22;9329;48.720;9.588;2022-10-16T09:56:06;23.20;99.90
18406;DHT22;9329;48.720;9.588;2022-10-16T09:58:33;23.50;99.90
18406;DHT22;9329;48.720;9.588;2022-10-16T10:00:59;23.70;99.90
18406;DHT22;9329;48.720;9.588;2022-10-16T10:03:33;23.90;99.90
18406;DHT22;9329;48.720;9.588;2022-10-16T10:06:01;23.80;99.90
18406;DHT22;9329;48.720;9.588;2022-10-16T10:08:30;23.60;99.90
18406;DHT22;9329;48.720;9.588;2022-10-16T10:10:57;23.70;99.90
18406;DHT22;9329;48.720;9.588;2022-10-16T10:13:24;23.70;99.90
18406;DHT22;9329;48.720;9.588;2022-10-16T10:15:52;23.90;99.90
18406;DHT22;9329;48.720;9.588;2022-10-16T10:18:20;23.90;99.90
18406;DHT22;9329;48.720;9.588;2022-10-16T10:20:58;23.80;99.90
18406;DHT22;9329;48.720;9.588;2022-10-16T10:23:26;23.80;99.90
18406;DHT22;9329;48.720;9.588;2022-10-16T10:25:53;24.00;99.90
18406;DHT22;9329;48.720;9.588;2022-10-16T10:28:28;24.00;99.90
18406;DHT22;9329;48.720;9.588;2022-10-16T10:31:00;24.30;99.90
18406;DHT22;9329;48.720;9.588;2022-10-16T10:33:39;24.00;99.90
18406;DHT22;9329;48.720;9.588;2022-10-16T10:36:16;24.00;99.90
18406;DHT22;9329;48.720;9.588;2022-10-16T10:42:15;24.40;99.90
18406;DHT22;9329;48.720;9.588;2022-10-16T10:47:28;24.30;99.90
18406;DHT22;9329;48.720;9.588;2022-10-16T10:50:01;24.10;99.90
18406;DHT22;9329;48.720;9.588;2022-10-16T10:52:33;24.10;99.90
18406;DHT22;9329;48.720;9.588;2022-10-16T10:55:03;24.10;99.90
18406;DHT22;9329;48.720;9.588;2022-10-16T10:57:38;23.90;99.90
18406;DHT22;9329;48.720;9.588;2022-10-16T11:00:10;23.30;99.90
18406;DHT22;9329;48.720;9.588;2022-10-16T11:02:44;23.70;99.90
18406;DHT22;9329;48.720;9.588;2022-10-16T11:05:26;23.50;99.90
18406;DHT22;9329;48.720;9.588;2022-10-16T11:08:00;23.80;99.90
18406;DHT22;9329;48.720;9.588;2022-10-16T11:10:42;23.90;99.90
18406;DHT22;9329;48.720;9.588;2022-10-16T11:13:23;24.10;99.90
18406;DHT22;9329;48.720;9.588;2022-10-16T11:15:53;24.20;99.90
18406;DHT22;9329;48.720;9.588;2022-10-16T11:18:22;24.10;99.90
18406;DHT22;9329;48.720;9.588;2022-10-16T11:20:51;23.90;99.90
18406;DHT22;9329;48.720;9.588;2022-10-16T11:23:23;24.20;99.90
18406;DHT22;9329;48.720;9.588;2022-10-16T11:25:51;24.50;99.90
18406;DHT22;9329;48.720;9.588;2022-10-16T11:28:20;24.70;99.90
18406;DHT22;9329;48.720;9.588;2022-10-16T11:30:50;24.80;99.90
18406;DHT22;9329;48.720;9.588;2022-10-16T11:33:22;24.90;99.90
18406;DHT22;9329;48.720;9.588;2022-10-16T11:35:52;24.90;99.90
18406;DHT22;9329;48.720;9.588;2022-10-16T11:38:21;25.00;99.90
18406;DHT22;9329;48.720;9.588;2022-10-16T11:40:52;25.10;99.90
18406;DHT22;9329;48.720;9.588;2022-10-16T11:43:21;26.60;99.90
18406;DHT22;9329;48.720;9.588;2022-10-16T11:45:51;28.70;99.90
18406;DHT22;9329;48.720;9.588;2022-10-16T11:48:21;28.20;99.90
18406;DHT22;9329;48.720;9.588;2022-10-16T11:50:50;27.60;99.90
18406;DHT22;9329;48.720;9.588;2022-10-16T11:53:20;27.40;99.90
18406;DHT22;9329;48.720;9.588;2022-10-16T11:55:48;27.90;99.90
18406;DHT22;9329;48.720;9.588;2022-10-16T11:58:20;27.40;99.90
18406;DHT22;9329;48.720;9.588;2022-10-16T12:01:00;27.40;99.90
18406;DHT22;9329;48.720;9.588;2022-10-16T12:03:48;27.40;99.90
18406;DHT22;9329;48.720;9.588;2022-10-16T12:06:23;27.10;99.90
18406;DHT22;9329;48.720;9.588;2022-10-16T12:08:57;27.40;99.90
18406;DHT22;9329;48.720;9.588;2022-10-16T12:11:32;28.10;99.90
18406;DHT22;9329;48.720;9.588;2022-10-16T12:16:54;32.20;97.40
18406;DHT22;9329;48.720;9.588;2022-10-16T12:19:22;33.60;93.10
18406;DHT22;9329;48.720;9.588;2022-10-16T12:21:50;34.40;86.50
18406;DHT22;9329;48.720;9.588;2022-10-16T12:24:21;35.00;84.10
18406;DHT22;9329;48.720;9.588;2022-10-16T12:26:48;35.70;79.30
18406;DHT22;9329;48.720;9.588;2022-10-16T12:29:21;37.20;71.90
18406;DHT22;9329;48.720;9.588;2022-10-16T12:31:49;37.00;64.20
18406;DHT22;9329;48.720;9.588;2022-10-16T12:34:22;36.50;65.10
18406;DHT22;9329;48.720;9.588;2022-10-16T12:36:49;35.80;72.10
18406;DHT22;9329;48.720;9.588;2022-10-16T12:39:20;35.40;67.80
18406;DHT22;9329;48.720;9.588;2022-10-16T12:41:48;35.80;67.80
18406;DHT22;9329;48.720;9.588;2022-10-16T12:44:31;36.40;67.20
18406;DHT22;9329;48.720;9.588;2022-10-16T12:46:58;37.00;61.40
18406;DHT22;9329;48.720;9.588;2022-10-16T12:49:35;37.40;61.70
18406;DHT22;9329;48.720;9.588;2022-10-16T12:52:03;37.30;59.70
18406;DHT22;9329;48.720;9.588;2022-10-16T12:54:30;37.80;59.50
18406;DHT22;9329;48.720;9.588;2022-10-16T12:57:01;37.70;60.00
18406;DHT22;9329;48.720;9.588;2022-10-16T12:59:33;37.80;59.90
18406;DHT22;9329;48.720;9.588;2022-10-16T13:04:54;38.90;53.40
18406;DHT22;9329;48.720;9.588;2022-10-16T13:07:33;38.70;57.30
18406;DHT22;9329;48.720;9.588;2022-10-16T13:10:05;38.50;52.90
18406;DHT22;9329;48.720;9.588;2022-10-16T13:12:44;37.90;57.30
18406;DHT22;9329;48.720;9.588;2022-10-16T13:15:17;37.90;56.00
18406;DHT22;9329;48.720;9.588;2022-10-16T13:17:48;38.80;51.70
18406;DHT22;9329;48.720;9.588;2022-10-16T13:20:21;38.50;52.90
18406;DHT22;9329;48.720;9.588;2022-10-16T13:22:51;36.50;54.90
18406;DHT22;9329;48.720;9.588;2022-10-16T13:25:22;35.50;57.30
18406;DHT22;9329;48.720;9.588;2022-10-16T13:27:54;34.70;59.30
18406;DHT22;9329;48.720;9.588;2022-10-16T13:30:22;33.50;63.90
18406;DHT22;9329;48.720;9.588;2022-10-16T13:32:52;33.20;63.60
18406;DHT22;9329;48.720;9.588;2022-10-16T13:35:26;32.80;65.10
18406;DHT22;9329;48.720;9.588;2022-10-16T13:38:03;33.70;58.90
18406;DHT22;9329;48.720;9.588;2022-10-16T13:40:30;34.90;60.90
18406;DHT22;9329;48.720;9.588;2022-10-16T13:42:59;35.60;55.40
18406;DHT22;9329;48.720;9.588;2022-10-16T13:45:26;36.00;54.00
18406;DHT22;9329;48.720;9.588;2022-10-16T13:48:01;35.80;56.50
18406;DHT22;9329;48.720;9.588;2022-10-16T13:50:29;37.30;53.00
18406;DHT22;9329;48.720;9.588;2022-10-16T13:53:03;38.40;52.60
18406;DHT22;9329;48.720;9.588;2022-10-16T13:55:30;38.70;51.40
18406;DHT22;9329;48.720;9.588;2022-10-16T13:58:04;37.00;52.70
18406;DHT22;9329;48.720;9.588;2022-10-16T14:00:31;35.60;55.40
18406;DHT22;9329;48.720;9.588;2022-10-16T14:02:58;35.00;54.50
18406;DHT22;9329;48.720;9.588;2022-10-16T14:05:27;34.30;56.70
18406;DHT22;9329;48.720;9.588;2022-10-16T14:07:55;34.50;59.90
18406;DHT22;9329;48.720;9.588;2022-10-16T14:10:24;34.50;56.00
18406;DHT22;9329;48.720;9.588;2022-10-16T14:12:58;34.60;56.50
18406;DHT22;9329;48.720;9.588;2022-10-16T14:15:26;33.60;58.90
18406;DHT22;9329;48.720;9.588;2022-10-16T14:17:53;33.40;57.90
18406;DHT22;9329;48.720;9.588;2022-10-16T14:20:20;32.80;58.20
18406;DHT22;9329;48.720;9.588;2022-10-16T14:22:57;32.50;62.00
18406;DHT22;9329;48.720;9.588;2022-10-16T14:25:26;32.40;62.30
18406;DHT22;9329;48.720;9.588;2022-10-16T14:27:56;31.90;61.20
18406;DHT22;9329;48.720;9.588;2022-10-16T14:30:23;31.30;65.60
18406;DHT22;9329;48.720;9.588;2022-10-16T14:32:54;31.30;67.50
18406;DHT22;9329;48.720;9.588;2022-10-16T14:35:23;31.30;67.40
18406;DHT22;9329;48.720;9.588;2022-10-16T14:37:51;30.80;68.10
18406;DHT22;9329;48.720;9.588;2022-10-16T14:40:18;30.20;71.80
18406;DHT22;9329;48.720;9.588;2022-10-16T14:42:47;29.60;76.30
18406;DHT22;9329;48.720;9.588;2022-10-16T14:45:15;29.10;76.20
18406;DHT22;9329;48.720;9.588;2022-10-16T14:47:47;28.50;79.40
18406;DHT22;9329;48.720;9.588;2022-10-16T14:50:14;27.70;82.00
18406;DHT22;9329;48.720;9.588;2022-10-16T14:52:41;27.50;85.60
18406;DHT22;9329;48.720;9.588;2022-10-16T14:55:09;27.60;83.70
18406;DHT22;9329;48.720;9.588;2022-10-16T14:57:36;27.60;83.50
18406;DHT22;9329;48.720;9.588;2022-10-16T15:00:06;27.40;87.40
18406;DHT22;9329;48.720;9.588;2022-10-16T15:02:34;26.70;89.30
18406;DHT22;9329;48.720;9.588;2022-10-16T15:05:07;26.10;91.40
18406;DHT22;9329;48.720;9.588;2022-10-16T15:07:37;25.80;92.40
18406;DHT22;9329;48.720;9.588;2022-10-16T15:10:04;25.30;90.10
18406;DHT22;9329;48.720;9.588;2022-10-16T15:12:31;24.60;93.40
18406;DHT22;9329;48.720;9.588;2022-10-16T15:14:58;24.40;94.90
18406;DHT22;9329;48.720;9.588;2022-10-16T15:17:26;24.20;94.20
18406;DHT22;9329;48.720;9.588;2022-10-16T15:19:53;24.30;94.90
18406;DHT22;9329;48.720;9.588;2022-10-16T15:22:20;24.40;95.50
18406;DHT22;9329;48.720;9.588;2022-10-16T15:24:48;24.20;95.90
18406;DHT22;9329;48.720;9.588;2022-10-16T15:27:15;24.20;96.80
18406;DHT22;9329;48.720;9.588;2022-10-16T15:29:43;24.20;97.40
18406;DHT22;9329;48.720;9.588;2022-10-16T15:32:10;24.40;97.50
18406;DHT22;9329;48.720;9.588;2022-10-16T15:34:38;24.20;98.10
18406;DHT22;9329;48.720;9.588;2022-10-16T15:37:05;24.10;98.30
18406;DHT22;9329;48.720;9.588;2022-10-16T15:39:32;23.90;97.80
18406;DHT22;9329;48.720;9.588;2022-10-16T15:41:59;23.90;97.50
18406;DHT22;9329;48.720;9.588;2022-10-16T15:44:25;23.50;99.90
18406;DHT22;9329;48.720;9.588;2022-10-16T15:46:55;23.60;99.90
18406;DHT22;9329;48.720;9.588;2022-10-16T15:49:23;23.40;99.90
18406;DHT22;9329;48.720;9.588;2022-10-16T15:51:51;23.30;99.90
18406;DHT22;9329;48.720;9.588;2022-10-16T15:54:20;23.30;99.90
18406;DHT22;9329;48.720;9.588;2022-10-16T15:56:48;23.70;99.90
18406;DHT22;9329;48.720;9.588;2022-10-16T15:59:15;23.20;99.90
18406;DHT22;9329;48.720;9.588;2022-10-16T16:01:42;23.20;99.90
18406;DHT22;9329;48.720;9.588;2022-10-16T16:04:09;23.10;99.90
18406;DHT22;9329;48.720;9.588;2022-10-16T16:06:36;22.90;99.90
18406;DHT22;9329;48.720;9.588;2022-10-16T16:09:06;22.70;99.90
18406;DHT22;9329;48.720;9.588;2022-10-16T16:11:32;22.40;99.90
18406;DHT22;9329;48.720;9.588;2022-10-16T16:14:03;22.80;99.90
18406;DHT22;9329;48.720;9.588;2022-10-16T16:16:29;22.40;99.90
18406;DHT22;9329;48.720;9.588;2022-10-16T16:18:57;22.50;99.90